createdAt,value
2018-12-19T00:01:30.698Z,17.67
2018-12-19T00:03:59.080Z,14.53
2018-12-19T00:06:27.526Z,10.23
2018-12-19T00:08:55.890Z,10.00
2018-12-19T00:11:24.900Z,10.50
2018-12-19T00:13:53.232Z,10.80
2018-12-19T00:16:21.565Z,9.93
2018-12-19T00:18:49.915Z,12.30
2018-12-19T00:21:18.387Z,11.23
2018-12-19T00:23:47.737Z,9.50
2018-12-19T00:26:16.086Z,11.60
2018-12-19T00:28:44.451Z,10.80
2018-12-19T00:31:12.868Z,11.53
2018-12-19T00:33:41.300Z,10.57
2018-12-19T00:36:09.655Z,10.00
2018-12-19T00:38:38.020Z,10.97
2018-12-19T00:41:06.446Z,9.70
2018-12-19T00:43:34.872Z,10.20
2018-12-19T00:46:03.243Z,10.23
2018-12-19T00:48:31.644Z,10.33
2018-12-19T00:51:01.076Z,10.70
2018-12-19T00:53:30.550Z,10.93
2018-12-19T00:55:58.914Z,10.70
2018-12-19T00:58:28.040Z,11.23
2018-12-19T01:00:59.341Z,9.93
2018-12-19T01:03:27.892Z,11.40
2018-12-19T01:05:56.251Z,11.47
2018-12-19T01:08:24.571Z,11.27
2018-12-19T01:10:52.936Z,9.37
2018-12-19T01:13:21.266Z,10.20
2018-12-19T01:15:49.666Z,10.57
2018-12-19T01:18:18.023Z,11.17
2018-12-19T01:20:46.388Z,10.77
2018-12-19T01:23:15.380Z,10.20
2018-12-19T01:25:43.728Z,8.73
2018-12-19T01:28:12.059Z,10.20
2018-12-19T01:30:40.402Z,9.67
2018-12-19T01:33:08.876Z,10.70
2018-12-19T01:35:37.231Z,9.73
2018-12-19T01:38:05.582Z,10.10
2018-12-19T01:40:34.218Z,9.87
2018-12-19T01:43:02.691Z,9.33
2018-12-19T01:45:31.065Z,11.67
2018-12-19T01:47:59.403Z,10.60
2018-12-19T01:50:27.753Z,9.77
2018-12-19T01:52:56.677Z,11.60
2018-12-19T01:55:25.040Z,10.90
2018-12-19T01:57:53.393Z,10.70
2018-12-19T02:00:26.103Z,10.60
2018-12-19T02:02:54.476Z,9.87
2018-12-19T02:05:23.722Z,9.27
2018-12-19T02:07:52.089Z,9.90
2018-12-19T02:10:20.441Z,9.67
2018-12-19T02:12:50.087Z,9.97
2018-12-19T02:15:18.564Z,9.27
2018-12-19T02:17:46.959Z,10.07
2018-12-19T02:20:15.308Z,9.20
2018-12-19T02:22:43.903Z,9.33
2018-12-19T02:25:12.388Z,8.97
2018-12-19T02:27:40.732Z,8.63
2018-12-19T02:30:09.213Z,10.20
2018-12-19T02:32:37.595Z,9.37
2018-12-19T02:35:06.107Z,9.60
2018-12-19T02:37:34.685Z,9.20
2018-12-19T02:40:03.135Z,9.00
2018-12-19T02:42:31.584Z,10.00
2018-12-19T02:44:59.936Z,11.00
2018-12-19T02:47:28.297Z,9.10
2018-12-19T02:49:56.649Z,10.33
2018-12-19T02:52:25.008Z,9.47
2018-12-19T02:54:53.381Z,10.10
2018-12-19T02:57:23.008Z,9.10
2018-12-19T02:59:52.101Z,9.73
2018-12-19T03:02:21.409Z,8.70
2018-12-19T03:04:50.865Z,9.70
2018-12-19T03:07:19.217Z,9.50
2018-12-19T03:09:47.635Z,8.40
2018-12-19T03:12:16.118Z,9.30
2018-12-19T03:14:44.572Z,9.20
2018-12-19T03:17:14.040Z,8.70
2018-12-19T03:19:42.377Z,7.60
2018-12-19T03:22:11.730Z,8.63
2018-12-19T03:24:40.101Z,9.27
2018-12-19T03:27:08.549Z,8.80
2018-12-19T03:29:36.960Z,8.97
2018-12-19T03:32:05.291Z,9.13
2018-12-19T03:34:34.222Z,9.00
2018-12-19T03:37:02.893Z,8.83
2018-12-19T03:39:31.415Z,8.73
2018-12-19T03:41:59.765Z,9.13
2018-12-19T03:44:29.121Z,9.20
2018-12-19T03:46:57.545Z,8.50
2018-12-19T03:49:26.208Z,9.70
2018-12-19T03:51:54.661Z,8.20
2018-12-19T03:54:23.927Z,8.37
2018-12-19T03:56:53.360Z,9.00
2018-12-19T03:59:21.730Z,8.47
2018-12-19T04:01:50.465Z,8.97
2018-12-19T04:04:18.794Z,9.00
2018-12-19T04:06:47.384Z,9.30
2018-12-19T04:09:15.749Z,9.97
2018-12-19T04:11:44.743Z,9.40
2018-12-19T04:14:13.191Z,9.07
2018-12-19T04:16:41.598Z,9.10
2018-12-19T04:19:09.947Z,8.37
2018-12-19T04:21:38.662Z,9.37
2018-12-19T04:24:07.744Z,9.60
2018-12-19T04:26:36.107Z,9.20
2018-12-19T04:29:04.484Z,8.53
2018-12-19T04:31:32.823Z,8.87
2018-12-19T04:34:01.871Z,8.40
2018-12-19T04:36:30.804Z,8.67
2018-12-19T04:38:59.240Z,8.77
2018-12-19T04:41:27.612Z,8.53
2018-12-19T04:43:55.988Z,8.50
2018-12-19T04:46:24.361Z,7.73
2018-12-19T04:48:53.225Z,8.67
2018-12-19T04:51:21.587Z,9.53
2018-12-19T04:53:49.931Z,8.63
2018-12-19T04:56:18.274Z,7.93
2018-12-19T04:58:47.485Z,7.90
2018-12-19T05:01:15.798Z,8.60
2018-12-19T05:03:45.257Z,9.00
2018-12-19T05:06:13.584Z,8.73
2018-12-19T05:08:41.941Z,8.70
2018-12-19T05:11:10.393Z,8.87
2018-12-19T05:13:38.816Z,8.77
2018-12-19T05:16:07.142Z,8.13
2018-12-19T05:18:36.537Z,7.63
2018-12-19T05:21:04.919Z,7.97
2018-12-19T05:23:33.253Z,8.30
2018-12-19T05:26:01.638Z,7.90
2018-12-19T05:28:29.996Z,7.90
2018-12-19T05:30:59.216Z,7.97
2018-12-19T05:33:27.549Z,7.80
2018-12-19T05:35:56.677Z,7.50
2018-12-19T05:38:25.055Z,8.50
2018-12-19T05:40:55.255Z,7.87
2018-12-19T05:43:25.304Z,7.60
2018-12-19T05:45:55.555Z,9.00
2018-12-19T05:48:23.995Z,8.50
2018-12-19T05:50:52.479Z,8.33
2018-12-19T05:53:20.823Z,8.00
2018-12-19T05:55:49.208Z,8.00
2018-12-19T05:58:17.548Z,8.50
2018-12-19T06:00:46.548Z,7.73
2018-12-19T06:03:14.875Z,8.28
2018-12-19T06:05:43.392Z,8.10
2018-12-19T06:08:11.765Z,8.90
2018-12-19T06:10:40.178Z,7.33
2018-12-19T06:13:08.522Z,8.90
2018-12-19T06:15:36.915Z,7.87
2018-12-19T06:18:05.306Z,7.03
2018-12-19T06:20:33.753Z,7.60
2018-12-19T06:23:02.104Z,7.87
2018-12-19T06:25:30.459Z,9.30
2018-12-19T06:27:58.938Z,8.37
2018-12-19T06:30:27.915Z,7.70
2018-12-19T06:32:57.294Z,8.40
2018-12-19T06:35:25.640Z,6.97
2018-12-19T06:37:55.882Z,8.33
2018-12-19T06:40:24.263Z,7.70
2018-12-19T06:42:52.640Z,6.70
2018-12-19T06:45:21.179Z,7.23
2018-12-19T06:47:49.617Z,7.40
2018-12-19T06:50:17.975Z,8.00
2018-12-19T06:52:46.381Z,7.37
2018-12-19T06:55:14.836Z,8.30
2018-12-19T06:57:43.258Z,7.90
2018-12-19T07:00:11.744Z,7.70
2018-12-19T07:02:40.112Z,8.03
2018-12-19T07:05:08.455Z,7.47
2018-12-19T07:07:36.774Z,8.67
2018-12-19T07:10:05.827Z,8.60
2018-12-19T07:12:34.359Z,7.10
2018-12-19T07:15:02.853Z,7.90
2018-12-19T07:17:31.323Z,7.80
2018-12-19T07:19:59.818Z,8.88
2018-12-19T07:22:28.208Z,8.20
2018-12-19T07:24:57.410Z,8.33
2018-12-19T07:27:25.779Z,7.20
2018-12-19T07:29:54.468Z,8.53
2018-12-19T07:32:22.803Z,6.93
2018-12-19T07:34:51.195Z,8.03
2018-12-19T07:37:19.566Z,7.97
2018-12-19T07:39:47.926Z,8.60
2018-12-19T07:42:16.272Z,7.50
2018-12-19T07:44:44.648Z,7.63
2018-12-19T07:47:12.983Z,8.10
2018-12-19T07:49:41.354Z,8.70
2018-12-19T07:52:09.708Z,8.30
2018-12-19T07:54:38.068Z,8.90
2018-12-19T07:57:06.413Z,8.10
2018-12-19T07:59:34.807Z,9.13
2018-12-19T08:02:03.244Z,8.80
2018-12-19T08:04:32.058Z,8.60
2018-12-19T08:07:00.387Z,9.07
2018-12-19T08:09:28.740Z,7.63
2018-12-19T08:11:57.743Z,8.10
2018-12-19T08:14:26.091Z,7.97
2018-12-19T08:16:54.497Z,8.40
2018-12-19T08:19:22.853Z,8.07
2018-12-19T08:21:51.191Z,8.27
2018-12-19T08:24:19.619Z,8.20
2018-12-19T08:26:48.092Z,8.20
2018-12-19T08:29:16.404Z,8.00
2018-12-19T08:31:44.925Z,8.00
2018-12-19T08:34:13.460Z,9.50
2018-12-19T08:36:42.592Z,8.40
2018-12-19T08:39:10.936Z,8.73
2018-12-19T08:41:40.400Z,8.33
2018-12-19T08:44:08.899Z,9.90
2018-12-19T08:46:37.872Z,8.57
2018-12-19T08:49:06.431Z,8.90
2018-12-19T08:51:34.779Z,9.77
2018-12-19T08:54:03.344Z,9.50
2018-12-19T08:56:31.709Z,8.87
2018-12-19T08:59:00.106Z,9.20
2018-12-19T09:01:28.456Z,9.50
2018-12-19T09:03:57.241Z,8.77
2018-12-19T09:06:25.621Z,9.20
2018-12-19T09:08:54.002Z,10.80
2018-12-19T09:11:22.344Z,8.70
2018-12-19T09:13:50.722Z,9.00
2018-12-19T09:16:19.294Z,8.60
2018-12-19T09:18:47.866Z,9.90
2018-12-19T09:21:16.227Z,8.90
2018-12-19T09:23:44.624Z,9.83
2018-12-19T09:26:13.033Z,10.90
2018-12-19T09:28:41.516Z,9.77
2018-12-19T09:31:10.004Z,10.20
2018-12-19T09:33:38.450Z,9.20
2018-12-19T09:36:07.045Z,10.23
2018-12-19T09:38:35.436Z,10.67
2018-12-19T09:41:03.919Z,10.67
2018-12-19T09:43:32.437Z,9.50
2018-12-19T09:46:00.967Z,11.00
2018-12-19T09:48:29.400Z,10.10
2018-12-19T09:50:57.864Z,9.20
2018-12-19T09:53:27.192Z,10.57
2018-12-19T09:55:56.220Z,10.93
2018-12-19T09:58:25.133Z,10.13
2018-12-19T10:00:53.565Z,9.67
2018-12-19T10:03:21.962Z,10.80
2018-12-19T10:05:50.364Z,11.30
2018-12-19T10:08:18.835Z,9.83
2018-12-19T10:10:47.321Z,9.93
2018-12-19T10:13:15.688Z,11.90
2018-12-19T10:15:44.135Z,11.27
2018-12-19T10:18:12.491Z,12.03
2018-12-19T10:20:41.211Z,11.93
2018-12-19T10:23:09.559Z,12.30
2018-12-19T10:25:37.934Z,11.50
2018-12-19T10:28:06.380Z,12.80
2018-12-19T10:30:39.990Z,12.47
2018-12-19T10:33:08.509Z,13.03
2018-12-19T10:35:37.740Z,12.57
2018-12-19T10:38:06.081Z,12.70
2018-12-19T10:40:34.526Z,12.97
2018-12-19T10:43:03.483Z,12.60
2018-12-19T10:45:31.940Z,11.63
2018-12-19T10:48:00.387Z,11.83
2018-12-19T10:50:28.871Z,12.00
2018-12-19T10:52:57.241Z,13.33
2018-12-19T10:55:25.610Z,12.73
2018-12-19T10:57:54.041Z,14.00
2018-12-19T11:00:27.780Z,14.93
2018-12-19T11:02:56.226Z,12.70
2018-12-19T11:05:24.723Z,12.87
2018-12-19T11:07:53.174Z,13.17
2018-12-19T11:10:22.274Z,12.17
2018-12-19T11:12:50.634Z,14.20
2018-12-19T11:15:19.024Z,13.97
2018-12-19T11:17:47.385Z,13.47
2018-12-19T11:20:15.880Z,13.60
2018-12-19T11:22:44.360Z,13.63
2018-12-19T11:25:12.892Z,13.60
2018-12-19T11:27:41.381Z,12.80
2018-12-19T11:30:09.912Z,15.07
2018-12-19T11:32:38.290Z,13.07
2018-12-19T11:35:06.926Z,14.20
2018-12-19T11:37:35.294Z,13.73
2018-12-19T11:40:04.319Z,16.40
2018-12-19T11:42:32.720Z,16.37
2018-12-19T11:45:02.207Z,17.30
2018-12-19T11:47:31.593Z,16.90
2018-12-19T11:50:00.658Z,14.80
2018-12-19T11:52:29.036Z,16.00
2018-12-19T11:54:57.432Z,14.80
2018-12-19T11:57:26.242Z,15.33
2018-12-19T11:59:54.676Z,15.00
2018-12-19T12:02:23.031Z,15.70
2018-12-19T12:04:52.064Z,16.13
2018-12-19T12:07:20.774Z,15.23
2018-12-19T12:09:49.232Z,16.37
2018-12-19T12:12:17.642Z,15.27
2018-12-19T12:14:46.089Z,14.83
2018-12-19T12:17:14.464Z,14.40
2018-12-19T12:19:42.815Z,14.90
2018-12-19T12:22:11.846Z,15.10
2018-12-19T12:24:40.273Z,14.47
2018-12-19T12:27:08.730Z,15.17
2018-12-19T12:29:37.141Z,14.77
2018-12-19T12:32:05.531Z,15.10
2018-12-19T12:34:34.568Z,15.93
2018-12-19T12:37:03.988Z,16.40
2018-12-19T12:39:32.372Z,16.90
2018-12-19T12:42:01.242Z,16.50
2018-12-19T12:44:30.136Z,16.20
2018-12-19T12:46:58.609Z,17.07
2018-12-19T12:49:26.957Z,18.00
2018-12-19T12:51:55.490Z,17.00
2018-12-19T12:54:23.877Z,16.93
2018-12-19T12:56:52.409Z,18.13
2018-12-19T12:59:20.904Z,18.70
2018-12-19T13:01:49.977Z,17.30
2018-12-19T13:04:18.362Z,18.93
2018-12-19T13:06:46.847Z,19.53
2018-12-19T13:09:15.298Z,18.70
2018-12-19T13:11:43.695Z,18.43
2018-12-19T13:14:12.594Z,19.10
2018-12-19T13:16:40.994Z,18.93
2018-12-19T13:19:10.114Z,18.10
2018-12-19T13:21:38.605Z,19.50
2018-12-19T13:24:07.035Z,19.20
2018-12-19T13:26:35.400Z,19.10
2018-12-19T13:29:03.983Z,20.60
2018-12-19T13:31:32.363Z,19.10
2018-12-19T13:34:00.742Z,18.70
2018-12-19T13:36:29.080Z,18.60
2018-12-19T13:38:57.556Z,19.73
2018-12-19T13:41:25.896Z,18.27
2018-12-19T13:43:54.344Z,18.40
2018-12-19T13:46:22.708Z,19.17
2018-12-19T13:48:51.086Z,19.27
2018-12-19T13:51:19.485Z,18.60
2018-12-19T13:53:47.981Z,18.27
2018-12-19T13:56:16.355Z,20.03
2018-12-19T13:58:44.944Z,18.93
2018-12-19T14:01:13.551Z,20.43
2018-12-19T14:03:42.004Z,17.27
2018-12-19T14:06:10.410Z,18.77
2018-12-19T14:08:39.794Z,18.83
2018-12-19T14:11:08.265Z,18.17
2018-12-19T14:13:37.224Z,18.87
2018-12-19T14:16:05.606Z,18.07
2018-12-19T14:18:33.982Z,17.83
2018-12-19T14:21:02.449Z,17.93
2018-12-19T14:23:30.793Z,17.97
2018-12-19T14:25:59.219Z,20.50
2018-12-19T14:28:27.732Z,19.47
2018-12-19T14:30:56.276Z,17.10
2018-12-19T14:33:24.662Z,17.77
2018-12-19T14:35:53.177Z,19.33
2018-12-19T14:38:22.195Z,18.07
2018-12-19T14:40:50.623Z,17.50
2018-12-19T14:43:19.003Z,18.07
2018-12-19T14:45:48.045Z,17.77
2018-12-19T14:48:16.460Z,19.73
2018-12-19T14:50:44.892Z,18.53
2018-12-19T14:53:13.330Z,18.80
2018-12-19T14:55:41.801Z,20.37
2018-12-19T14:58:10.284Z,19.37
2018-12-19T15:00:38.918Z,18.40
2018-12-19T15:03:07.786Z,19.50
2018-12-19T15:05:36.268Z,18.00
2018-12-19T15:08:05.348Z,16.80
2018-12-19T15:10:34.645Z,18.60
2018-12-19T15:13:03.896Z,18.20
2018-12-19T15:15:32.383Z,16.80
2018-12-19T15:18:00.837Z,18.17
2018-12-19T15:20:29.236Z,17.97
2018-12-19T15:22:57.651Z,17.60
2018-12-19T15:25:26.113Z,17.40
2018-12-19T15:27:54.596Z,15.70
2018-12-19T15:30:23.008Z,17.20
2018-12-19T15:32:51.603Z,16.57
2018-12-19T15:35:20.022Z,16.37
2018-12-19T15:37:48.437Z,16.87
2018-12-19T15:40:17.016Z,15.97
2018-12-19T15:42:45.527Z,16.10
2018-12-19T15:45:13.956Z,18.70
2018-12-19T15:47:42.449Z,18.87
2018-12-19T15:50:10.921Z,20.27
2018-12-19T15:52:39.438Z,19.53
2018-12-19T15:55:08.659Z,19.20
2018-12-19T15:57:37.170Z,19.40
2018-12-19T16:00:08.977Z,18.73
2018-12-19T16:02:37.411Z,19.33
2018-12-19T16:05:06.497Z,21.23
2018-12-19T16:07:35.093Z,21.80
2018-12-19T16:10:03.756Z,20.83
2018-12-19T16:12:38.974Z,21.00
2018-12-19T16:15:02.792Z,21.70
2018-12-19T16:17:31.228Z,18.73
2018-12-19T16:20:00.255Z,19.62
2018-12-19T16:22:29.301Z,21.73
2018-12-19T16:24:57.697Z,19.80
2018-12-19T16:27:26.244Z,19.33
2018-12-19T16:29:54.715Z,18.67
2018-12-19T16:32:23.116Z,17.80
2018-12-19T16:34:51.966Z,20.77
2018-12-19T16:37:20.922Z,21.13
2018-12-19T16:39:49.465Z,20.40
2018-12-19T16:42:17.892Z,20.70
2018-12-19T16:44:46.344Z,19.00
2018-12-19T16:47:14.908Z,18.57
2018-12-19T16:49:44.224Z,20.10
2018-12-19T16:52:12.697Z,19.57
2018-12-19T16:54:41.825Z,18.83
2018-12-19T16:57:10.351Z,20.20
2018-12-19T16:59:39.324Z,19.60
2018-12-19T17:02:08.604Z,18.63
2018-12-19T17:04:37.068Z,18.70
2018-12-19T17:07:05.457Z,19.17
2018-12-19T17:09:33.926Z,16.80
2018-12-19T17:12:02.489Z,19.93
2018-12-19T17:14:31.160Z,19.17
2018-12-19T17:16:59.672Z,20.20
2018-12-19T17:19:28.089Z,19.57
2018-12-19T17:21:56.436Z,18.60
2018-12-19T17:24:30.132Z,21.30
2018-12-19T17:26:58.665Z,19.60
2018-12-19T17:29:27.062Z,20.23
2018-12-19T17:31:55.449Z,19.50
2018-12-19T17:34:23.933Z,19.23
2018-12-19T17:36:52.387Z,20.50
2018-12-19T17:39:20.880Z,19.80
2018-12-19T17:41:49.233Z,19.60
2018-12-19T17:44:17.614Z,22.30
2018-12-19T17:46:46.081Z,24.13
2018-12-19T17:49:14.422Z,22.80
2018-12-19T17:51:42.761Z,20.23
2018-12-19T17:54:11.235Z,19.83
2018-12-19T17:56:39.721Z,18.67
2018-12-19T17:59:08.750Z,19.40
2018-12-19T18:01:37.350Z,20.73
2018-12-19T18:04:05.860Z,20.40
2018-12-19T18:06:34.245Z,18.50
2018-12-19T18:09:04.468Z,20.10
2018-12-19T18:11:32.873Z,19.77
2018-12-19T18:14:01.968Z,19.87
2018-12-19T18:16:30.394Z,20.60
2018-12-19T18:18:58.789Z,19.87
2018-12-19T18:21:28.059Z,20.60
2018-12-19T18:23:56.427Z,21.20
2018-12-19T18:26:24.792Z,20.50
2018-12-19T18:28:53.148Z,21.17
2018-12-19T18:31:21.569Z,22.17
2018-12-19T18:33:49.926Z,23.27
2018-12-19T18:36:18.332Z,22.50
2018-12-19T18:38:46.704Z,21.17
2018-12-19T18:41:15.057Z,19.80
2018-12-19T18:43:43.537Z,21.83
2018-12-19T18:46:12.053Z,21.00
2018-12-19T18:48:40.484Z,20.80
2018-12-19T18:51:08.952Z,20.17
2018-12-19T18:53:37.521Z,19.93
2018-12-19T18:56:06.091Z,19.93
2018-12-19T18:58:37.189Z,17.93
2018-12-19T19:01:06.589Z,17.73
2018-12-19T19:03:36.276Z,18.00
2018-12-19T19:06:05.022Z,18.57
2018-12-19T19:08:33.388Z,18.87
2018-12-19T19:11:01.741Z,16.80
2018-12-19T19:13:30.269Z,17.37
2018-12-19T19:15:59.823Z,17.90
2018-12-19T19:18:28.457Z,16.20
2018-12-19T19:20:56.878Z,16.57
2018-12-19T19:23:25.372Z,15.90
2018-12-19T19:25:54.088Z,17.90
2018-12-19T19:28:22.526Z,16.60
2018-12-19T19:30:50.961Z,16.27
2018-12-19T19:33:19.376Z,16.43
2018-12-19T19:35:47.743Z,17.63
2018-12-19T19:38:16.846Z,18.00
2018-12-19T19:40:45.210Z,15.90
2018-12-19T19:43:14.250Z,15.30
2018-12-19T19:45:43.691Z,16.30
2018-12-19T19:48:13.105Z,16.50
2018-12-19T19:50:41.516Z,16.80
2018-12-19T19:53:11.011Z,16.50
2018-12-19T19:55:39.939Z,17.07
2018-12-19T19:58:08.506Z,15.10
2018-12-19T20:00:37.608Z,14.50
2018-12-19T20:03:06.698Z,15.30
2018-12-19T20:05:35.095Z,16.17
2018-12-19T20:08:03.487Z,14.90
2018-12-19T20:10:31.968Z,14.73
2018-12-19T20:13:00.993Z,14.57
2018-12-19T20:15:29.484Z,15.50
2018-12-19T20:17:58.228Z,16.03
2018-12-19T20:20:26.650Z,15.10
2018-12-19T20:22:55.033Z,14.20
2018-12-19T20:25:23.500Z,15.73
2018-12-19T20:27:52.772Z,15.10
2018-12-19T20:30:22.023Z,15.07
2018-12-19T20:32:50.453Z,15.80
2018-12-19T20:35:19.118Z,15.60
2018-12-19T20:37:47.499Z,16.30
2018-12-19T20:40:15.852Z,16.83
2018-12-19T20:42:44.501Z,16.73
2018-12-19T20:45:13.927Z,15.50
2018-12-19T20:47:42.338Z,14.80
2018-12-19T20:50:10.967Z,14.77
2018-12-19T20:52:39.463Z,12.70
2018-12-19T20:55:07.858Z,13.63
2018-12-19T20:57:36.381Z,12.80
2018-12-19T21:00:06.054Z,13.20
2018-12-19T21:02:34.489Z,12.97
2018-12-19T21:05:03.181Z,11.93
2018-12-19T21:07:31.724Z,12.23
2018-12-19T21:10:00.265Z,11.63
2018-12-19T21:12:28.745Z,12.30
2018-12-19T21:14:57.205Z,12.70
2018-12-19T21:18:29.649Z,11.80
2018-12-19T21:20:58.064Z,12.73
2018-12-19T21:23:26.476Z,12.80
2018-12-19T21:25:54.854Z,12.00
2018-12-19T21:28:23.373Z,12.80
2018-12-19T21:30:51.804Z,12.10
2018-12-19T21:33:20.359Z,10.67
2018-12-19T21:35:48.698Z,11.20
2018-12-19T21:38:17.088Z,11.83
2018-12-19T21:40:46.736Z,10.17
2018-12-19T21:43:15.607Z,10.83
2018-12-19T21:45:44.061Z,11.70
2018-12-19T21:48:12.558Z,10.90
2018-12-19T21:50:41.077Z,11.30
2018-12-19T21:53:09.513Z,11.70
2018-12-19T21:55:38.208Z,12.47
2018-12-19T21:58:06.648Z,12.63
2018-12-19T22:00:37.697Z,12.13
2018-12-19T22:03:07.210Z,10.50
2018-12-19T22:05:37.540Z,10.60
2018-12-19T22:08:05.989Z,10.80
2018-12-19T22:10:34.561Z,9.73
2018-12-19T22:13:03.132Z,13.57
2018-12-19T22:15:32.639Z,12.13
2018-12-19T22:18:06.473Z,10.07
2018-12-19T22:20:35.007Z,10.47
2018-12-19T22:23:03.723Z,11.10
2018-12-19T22:25:32.885Z,10.13
2018-12-19T22:28:01.355Z,9.43
2018-12-19T22:30:30.485Z,10.50
2018-12-19T22:32:59.073Z,10.90
2018-12-19T22:35:27.709Z,9.10
2018-12-19T22:37:56.209Z,10.13
2018-12-19T22:40:25.408Z,10.40
2018-12-19T22:42:54.010Z,9.63
2018-12-19T22:45:22.703Z,9.37
2018-12-19T22:47:51.998Z,11.80
2018-12-19T22:50:20.929Z,11.40
2018-12-19T22:52:49.588Z,9.77
2018-12-19T22:55:18.212Z,9.63
2018-12-19T22:57:46.979Z,10.60
2018-12-19T23:00:18.248Z,9.60
2018-12-19T23:02:52.309Z,13.10
2018-12-19T23:05:26.407Z,11.80
2018-12-19T23:07:55.091Z,11.87
2018-12-19T23:10:23.628Z,11.33
2018-12-19T23:12:52.559Z,12.20
2018-12-19T23:15:21.279Z,10.77
2018-12-19T23:17:51.410Z,11.40
2018-12-19T23:20:20.118Z,11.27
2018-12-19T23:22:48.605Z,10.53
2018-12-19T23:25:17.767Z,10.60
2018-12-19T23:27:46.235Z,10.20
2018-12-19T23:30:14.990Z,10.63
2018-12-19T23:32:43.545Z,10.00
2018-12-19T23:35:11.904Z,10.27
2018-12-19T23:37:40.382Z,9.10
2018-12-19T23:40:08.897Z,10.20
2018-12-19T23:42:37.286Z,10.33
2018-12-19T23:45:06.054Z,11.67
2018-12-19T23:47:34.521Z,11.20
2018-12-19T23:50:03.027Z,10.23
2018-12-19T23:52:31.475Z,10.10
2018-12-19T23:54:59.964Z,9.43
2018-12-19T23:57:28.540Z,10.00
2018-12-19T23:59:57.084Z,9.23
